Time;durP1;ratioP1;P1;durP2;ratioP2;P2;SDS_P1;SDS_P2;PMS_P1;PMS_P2;Temp;Humidity;BMP_temperature;BMP_pressure;BME280_temperature;BME280_humidity;BME280_pressure;Samples;Min_cycle;Max_cycle;Signal;HPM_P1;HPM_P2
2021/09/13 00:03:00;;;;;;;3.47;2.40;;;24.20;51.20;;;;;;6251197;28;20039;-78
2021/09/13 00:06:01;;;;;;;3.03;2.35;;;24.20;51.40;;;;;;6232774;28;20428;-77
2021/09/13 00:09:03;;;;;;;3.42;2.33;;;24.10;51.70;;;;;;6249258;28;20132;-78
2021/09/13 00:12:05;;;;;;;10.48;2.42;;;24.10;52.00;;;;;;6242652;28;20033;-78
2021/09/13 00:15:08;;;;;;;4.35;2.40;;;24.00;52.20;;;;;;6250096;28;20037;-78
2021/09/13 00:18:09;;;;;;;2.90;2.30;;;24.00;52.40;;;;;;6249932;28;20481;-78
2021/09/13 00:21:12;;;;;;;4.38;2.03;;;24.00;52.50;;;;;;6249482;28;20034;-78
2021/09/13 00:24:13;;;;;;;3.60;2.60;;;23.90;52.60;;;;;;6249809;28;20041;-79
2021/09/13 00:27:15;;;;;;;3.15;2.35;;;23.90;52.60;;;;;;6232266;28;20053;-79
2021/09/13 00:30:20;;;;;;;3.33;2.17;;;23.90;52.70;;;;;;6248631;28;20128;-78
2021/09/13 00:33:21;;;;;;;4.00;2.35;;;23.90;52.60;;;;;;6221828;28;20068;-78
2021/09/13 00:36:24;;;;;;;2.92;2.10;;;23.90;52.60;;;;;;6248137;28;20056;-79
2021/09/13 00:39:26;;;;;;;4.55;2.28;;;23.90;52.60;;;;;;6248402;28;20033;-78
2021/09/13 00:42:28;;;;;;;4.63;2.33;;;23.90;52.60;;;;;;6248701;28;20038;-79
2021/09/13 00:45:31;;;;;;;8.40;2.47;;;23.90;52.50;;;;;;6248341;28;20548;-78
2021/09/13 00:48:31;;;;;;;3.42;2.22;;;23.90;52.50;;;;;;6235144;28;20029;-79
2021/09/13 00:51:32;;;;;;;4.00;2.13;;;23.90;52.40;;;;;;6229307;28;20076;-79
2021/09/13 00:54:34;;;;;;;4.45;2.50;;;23.90;52.40;;;;;;6248431;28;20025;-79
2021/09/13 00:57:35;;;;;;;3.30;2.13;;;23.90;53.00;;;;;;6249205;28;20045;-79
2021/09/13 01:00:36;;;;;;;4.68;2.55;;;23.90;52.40;;;;;;6232756;28;20068;-79
2021/09/13 01:03:37;;;;;;;3.92;2.15;;;23.90;52.40;;;;;;6249651;28;20529;-79
2021/09/13 01:06:38;;;;;;;6.35;2.17;;;23.90;52.50;;;;;;6248208;28;20513;-78
2021/09/13 01:09:40;;;;;;;4.47;2.15;;;23.90;52.60;;;;;;6249073;28;20033;-79
2021/09/13 01:12:40;;;;;;;3.55;2.08;;;23.90;52.50;;;;;;6248286;28;20099;-78
2021/09/13 01:15:42;;;;;;;9.00;2.53;;;23.90;52.30;;;;;;6249853;28;20042;-79
2021/09/13 01:18:43;;;;;;;2.75;2.22;;;23.90;52.10;;;;;;6232552;28;20163;-79
2021/09/13 01:21:46;;;;;;;3.17;2.15;;;23.80;52.00;;;;;;6233281;28;20033;-78
2021/09/13 01:24:47;;;;;;;5.10;2.30;;;23.70;51.90;;;;;;6232518;28;20038;-78
2021/09/13 01:27:48;;;;;;;8.48;2.40;;;23.70;51.80;;;;;;6248554;28;20049;-79
2021/09/13 01:30:50;;;;;;;4.45;2.50;;;23.70;52.00;;;;;;6247737;28;20065;-78
2021/09/13 01:33:51;;;;;;;4.85;2.72;;;23.60;51.90;;;;;;6216637;28;20041;-78
2021/09/13 01:37:00;;;;;;;3.42;2.25;;;23.60;51.90;;;;;;6216418;28;20116;-79
2021/09/13 01:40:06;;;;;;;4.88;3.05;;;23.50;51.90;;;;;;6224184;28;20054;-79
2021/09/13 01:43:08;;;;;;;9.77;3.30;;;23.50;52.20;;;;;;6230419;28;20052;-78
2021/09/13 01:46:09;;;;;;;9.43;3.40;;;23.50;52.40;;;;;;6246937;28;20045;-79
2021/09/13 01:49:19;;;;;;;5.85;2.75;;;23.40;52.60;;;;;;6233637;28;20037;-79
2021/09/13 01:52:20;;;;;;;8.80;4.82;;;23.40;52.60;;;;;;6252191;28;20041;-79
2021/09/13 01:55:22;;;;;;;11.40;5.57;;;23.40;52.70;;;;;;6252161;28;20054;-79
2021/09/13 01:58:23;;;;;;;8.30;5.25;;;23.40;52.70;;;;;;6235397;28;20083;-78
2021/09/13 02:01:27;;;;;;;7.72;4.35;;;23.40;52.80;;;;;;6235949;28;20076;-79
2021/09/13 02:04:29;;;;;;;14.15;5.15;;;23.30;52.80;;;;;;6252691;28;20025;-80
2021/09/13 02:07:30;;;;;;;5.70;3.15;;;23.30;52.70;;;;;;6232608;28;20101;-78
2021/09/13 02:10:32;;;;;;;6.45;3.13;;;23.40;52.70;;;;;;6251981;28;20033;-78
2021/09/13 02:13:34;;;;;;;3.92;2.58;;;23.30;52.50;;;;;;6251962;28;20044;-79
2021/09/13 02:16:35;;;;;;;5.13;2.80;;;23.30;52.50;;;;;;6251866;28;20049;-79
2021/09/13 02:19:37;;;;;;;5.03;2.80;;;23.20;52.60;;;;;;6251463;28;20044;-78
2021/09/13 02:22:40;;;;;;;5.75;2.33;;;23.20;52.60;;;;;;6236681;28;20144;-78
2021/09/13 02:25:42;;;;;;;3.85;2.30;;;23.20;52.80;;;;;;6251783;28;20033;-78
2021/09/13 02:28:45;;;;;;;3.80;2.05;;;23.20;53.10;;;;;;6235062;28;20029;-77
2021/09/13 02:31:46;;;;;;;4.35;2.25;;;23.20;53.40;;;;;;6233200;28;20141;-79
2021/09/13 02:34:46;;;;;;;4.18;1.92;;;23.10;53.60;;;;;;6251277;28;20041;-78
2021/09/13 02:37:47;;;;;;;4.85;1.85;;;23.10;53.80;;;;;;6233835;28;20044;-79
2021/09/13 02:40:49;;;;;;;3.17;2.03;;;23.10;53.80;;;;;;6250361;28;20056;-78
2021/09/13 02:43:50;;;;;;;2.70;2.20;;;23.10;53.90;;;;;;6233777;28;20053;-78
2021/09/13 02:47:10;;;;;;;3.45;2.20;;;23.00;54.10;;;;;;6250999;28;20375;-78
2021/09/13 02:50:12;;;;;;;3.75;2.35;;;23.00;54.40;;;;;;6250753;28;20037;-78
2021/09/13 02:53:13;;;;;;;2.78;2.08;;;23.00;54.40;;;;;;6205973;28;20061;-78
2021/09/13 02:56:14;;;;;;;4.60;2.35;;;22.90;54.50;;;;;;6251806;28;20544;-79
2021/09/13 02:59:20;;;;;;;3.67;2.17;;;22.90;54.70;;;;;;6234432;28;20061;-79
2021/09/13 03:02:21;;;;;;;2.70;2.20;;;22.90;54.80;;;;;;6230115;28;20123;-79
2021/09/13 03:05:22;;;;;;;4.78;2.60;;;22.90;54.90;;;;;;6233434;28;20041;-79
2021/09/13 03:08:25;;;;;;;3.08;2.20;;;24.00;55.50;;;;;;6250986;28;20176;-79
2021/09/13 03:11:26;;;;;;;5.55;2.10;;;22.90;55.10;;;;;;6250340;28;20045;-78
2021/09/13 03:14:27;;;;;;;2.85;1.73;;;22.80;55.20;;;;;;6233994;28;20037;-79
2021/09/13 03:17:28;;;;;;;2.88;1.77;;;22.80;55.40;;;;;;6250508;28;20037;-78
2021/09/13 03:20:32;;;;;;;2.42;2.00;;;22.70;55.50;;;;;;6234233;28;20109;-79
2021/09/13 03:23:33;;;;;;;6.25;2.38;;;22.60;55.70;;;;;;6250401;28;20084;-79
2021/09/13 03:26:35;;;;;;;3.58;1.63;;;22.60;55.80;;;;;;6232766;28;20033;-79
2021/09/13 03:29:36;;;;;;;2.88;1.98;;;22.60;56.00;;;;;;6250170;28;20107;-79
2021/09/13 03:32:37;;;;;;;8.20;2.33;;;22.50;56.00;;;;;;6249804;28;20154;-79
2021/09/13 03:35:39;;;;;;;3.42;2.08;;;22.50;56.20;;;;;;6250154;28;20048;-79
2021/09/13 03:38:40;;;;;;;8.68;2.58;;;22.50;56.30;;;;;;6250003;28;20033;-78
2021/09/13 03:41:47;;;;;;;3.92;2.08;;;22.40;56.40;;;;;;6247580;28;20033;-79
2021/09/13 03:44:48;;;;;;;3.28;2.08;;;22.40;56.60;;;;;;6233281;28;20115;-78
2021/09/13 03:48:12;;;;;;;3.08;2.38;;;22.40;56.60;;;;;;6249425;28;20109;-79
2021/09/13 03:51:18;;;;;;;5.03;1.95;;;22.30;56.70;;;;;;6249374;28;20033;-79
2021/09/13 03:54:19;;;;;;;4.13;2.47;;;22.30;56.80;;;;;;6248602;28;20037;-81
2021/09/13 03:57:23;;;;;;;5.43;2.42;;;22.40;57.00;;;;;;6249518;28;20030;-80
2021/09/13 04:00:24;;;;;;;3.05;2.03;;;22.50;56.70;;;;;;6249445;28;20033;-79
2021/09/13 04:03:33;;;;;;;5.07;2.40;;;22.50;56.70;;;;;;6248165;28;20041;-80
2021/09/13 04:13:26;;;;;;;3.88;2.72;;;22.30;56.80;;;;;;6246968;28;20037;-79
2021/09/13 04:16:39;;;;;;;3.03;1.92;;;22.30;57.00;;;;;;6249142;28;20575;-80
2021/09/13 04:20:04;;;;;;;3.25;2.10;;;22.20;57.20;;;;;;6249556;28;20041;-81
2021/09/13 04:23:19;;;;;;;6.35;3.08;;;22.20;57.40;;;;;;6225438;28;20042;-78
2021/09/13 04:26:46;;;;;;;6.28;2.70;;;22.10;57.50;;;;;;6210298;28;20080;-77
2021/09/13 04:30:00;;;;;;;3.92;2.40;;;22.10;57.60;;;;;;6246313;28;20175;-77
2021/09/13 04:33:35;;;;;;;8.13;2.58;;;22.00;57.60;;;;;;6231183;28;20056;-78
2021/09/13 04:37:03;;;;;;;3.30;2.40;;;21.90;57.90;;;;;;6230238;28;20033;-79
2021/09/13 04:40:20;;;;;;;4.63;2.30;;;21.80;58.60;;;;;;6230050;28;20332;-78
2021/09/13 04:44:00;;;;;;;3.45;2.05;;;21.80;58.40;;;;;;6128230;28;20078;-79
2021/09/13 04:47:21;;;;;;;2.85;2.33;;;21.70;58.60;;;;;;6131897;28;20472;-79
2021/09/13 04:50:40;;;;;;;4.25;2.53;;;21.60;58.60;;;;;;6145086;28;20035;-79
2021/09/13 04:54:17;;;;;;;4.47;2.58;;;21.60;58.70;;;;;;6074465;29;20060;-78
2021/09/13 04:57:18;;;;;;;3.72;2.22;;;21.60;58.90;;;;;;6068678;29;20119;-80
2021/09/13 05:00:21;;;;;;;5.00;2.58;;;21.60;58.90;;;;;;6054535;29;20119;-79
2021/09/13 05:03:24;;;;;;;4.43;2.58;;;21.60;58.90;;;;;;6071162;29;20036;-78
2021/09/13 05:06:31;;;;;;;6.25;2.90;;;21.60;58.90;;;;;;6048421;29;20130;-79
2021/09/13 05:09:36;;;;;;;3.30;2.10;;;21.70;58.70;;;;;;6063138;29;20119;-79
2021/09/13 05:12:39;;;;;;;4.20;2.90;;;21.80;58.40;;;;;;6063164;29;20040;-79
2021/09/13 05:15:40;;;;;;;3.58;2.25;;;21.80;57.80;;;;;;6091307;29;20525;-78
2021/09/13 05:18:41;;;;;;;7.43;3.10;;;21.80;57.50;;;;;;6098685;29;20042;-77
2021/09/13 05:21:42;;;;;;;4.20;2.75;;;21.80;57.40;;;;;;6083109;29;20123;-79
2021/09/13 05:24:48;;;;;;;4.53;2.58;;;21.90;57.20;;;;;;6135198;28;20456;-78
2021/09/13 05:27:49;;;;;;;6.28;2.60;;;21.90;57.00;;;;;;6189548;28;20041;-79
2021/09/13 05:30:50;;;;;;;3.80;2.50;;;21.90;57.20;;;;;;6247386;28;20037;-81
2021/09/13 05:33:53;;;;;;;5.15;2.75;;;21.90;57.50;;;;;;6250952;28;20061;-81
2021/09/13 05:36:55;;;;;;;4.93;2.42;;;21.80;57.70;;;;;;6228412;28;20076;-81
2021/09/13 05:39:58;;;;;;;4.07;2.58;;;21.80;57.90;;;;;;6246298;28;20377;-81
2021/09/13 05:43:02;;;;;;;4.68;2.85;;;21.70;58.00;;;;;;6226324;28;20132;-81
2021/09/13 05:46:03;;;;;;;5.60;2.75;;;21.60;58.20;;;;;;6226423;28;20041;-80
2021/09/13 05:49:09;;;;;;;8.13;2.50;;;21.60;58.90;;;;;;6244620;28;20053;-80
2021/09/13 05:52:13;;;;;;;5.65;2.90;;;21.60;58.50;;;;;;6243947;28;20082;-79
2021/09/13 05:55:20;;;;;;;4.10;2.40;;;21.60;58.70;;;;;;6243690;28;20076;-80
2021/09/13 05:58:23;;;;;;;9.57;3.17;;;21.50;58.80;;;;;;6245838;28;20048;-81
2021/09/13 06:01:27;;;;;;;9.20;2.85;;;21.50;58.80;;;;;;6240022;28;20072;-80
2021/09/13 06:04:32;;;;;;;8.43;2.80;;;21.50;58.90;;;;;;6226642;28;20588;-79
2021/09/13 06:07:33;;;;;;;7.10;3.67;;;21.50;59.00;;;;;;6239773;28;20029;-79
2021/09/13 06:10:34;;;;;;;5.40;3.38;;;21.20;58.90;;;;;;6228839;28;20056;-80
2021/09/13 06:13:35;;;;;;;7.97;4.13;;;21.50;59.20;;;;;;6245740;28;20064;-80
2021/09/13 06:16:37;;;;;;;9.57;3.15;;;21.40;59.30;;;;;;6245789;28;20129;-80
2021/09/13 06:19:39;;;;;;;6.55;3.58;;;21.40;59.40;;;;;;6243907;28;20454;-79
2021/09/13 06:22:40;;;;;;;7.70;3.72;;;21.40;59.50;;;;;;6223272;28;20356;-80
2021/09/13 06:25:46;;;;;;;5.45;3.20;;;21.40;59.60;;;;;;6245334;28;20115;-79
2021/09/13 06:28:49;;;;;;;7.68;3.58;;;21.40;59.60;;;;;;6226325;28;20037;-80
2021/09/13 06:31:50;;;;;;;6.97;3.15;;;21.40;59.70;;;;;;6218217;28;20459;-80
2021/09/13 06:34:51;;;;;;;6.88;3.30;;;21.40;59.70;;;;;;6243467;28;20037;-81
2021/09/13 06:38:00;;;;;;;9.93;3.78;;;21.40;59.70;;;;;;6233597;28;20045;-81
2021/09/13 06:41:02;;;;;;;4.57;2.90;;;21.40;59.60;;;;;;6249290;28;20462;-80
2021/09/13 06:44:04;;;;;;;10.60;3.45;;;21.50;59.60;;;;;;6249865;28;20529;-82
2021/09/13 06:47:08;;;;;;;7.93;3.10;;;21.50;59.60;;;;;;6247763;28;20427;-81
2021/09/13 06:50:18;;;;;;;7.03;3.10;;;21.50;59.40;;;;;;6250967;28;20162;-80
2021/09/13 06:53:19;;;;;;;7.05;3.33;;;21.60;59.40;;;;;;6232861;28;20375;-81
2021/09/13 06:56:20;;;;;;;5.38;3.15;;;21.70;59.30;;;;;;6249299;28;20038;-80
2021/09/13 06:59:21;;;;;;;4.78;2.80;;;21.80;59.10;;;;;;6232610;28;20084;-80
2021/09/13 07:02:22;;;;;;;15.73;3.20;;;21.80;58.90;;;;;;6248570;28;20048;-80
2021/09/13 07:05:23;;;;;;;8.50;3.50;;;21.90;58.80;;;;;;6248864;28;20033;-80
2021/09/13 07:08:24;;;;;;;3.88;2.88;;;21.90;58.80;;;;;;6248647;28;20159;-80
2021/09/13 07:11:26;;;;;;;10.50;3.00;;;22.00;58.60;;;;;;6248982;28;20401;-80
2021/09/13 07:14:27;;;;;;;5.35;2.92;;;22.00;58.50;;;;;;6220784;28;20041;-81
2021/09/13 07:17:29;;;;;;;5.43;2.88;;;22.00;58.60;;;;;;6251146;28;20116;-80
2021/09/13 07:20:33;;;;;;;5.18;3.08;;;22.10;58.40;;;;;;6248680;28;20037;-80
2021/09/13 07:23:34;;;;;;;4.95;2.60;;;22.20;58.30;;;;;;6232290;28;20041;-81
2021/09/13 07:26:35;;;;;;;7.95;3.50;;;22.30;58.20;;;;;;6232022;28;20029;-81
2021/09/13 07:29:36;;;;;;;6.75;2.80;;;22.40;57.90;;;;;;6231639;28;20103;-81
2021/09/13 07:32:38;;;;;;;7.78;2.67;;;22.50;57.60;;;;;;6247741;28;20076;-81
2021/09/13 07:35:39;;;;;;;3.65;2.50;;;22.60;57.40;;;;;;6249233;28;20037;-81
2021/09/13 07:38:41;;;;;;;3.95;2.65;;;22.60;57.20;;;;;;6248083;28;20037;-81
2021/09/13 07:41:42;;;;;;;5.95;3.08;;;22.70;57.00;;;;;;6246361;28;20037;-81
2021/09/13 07:44:43;;;;;;;5.32;2.90;;;22.80;56.80;;;;;;6248299;28;20459;-80
2021/09/13 07:47:43;;;;;;;4.55;2.97;;;23.00;56.70;;;;;;6246433;28;20049;-82
2021/09/13 07:50:45;;;;;;;6.40;3.92;;;23.20;56.40;;;;;;6249586;28;20037;-81
2021/09/13 07:53:46;;;;;;;10.65;3.20;;;23.30;56.00;;;;;;6231804;28;20077;-81
2021/09/13 07:56:47;;;;;;;5.70;3.20;;;23.50;55.70;;;;;;6249005;28;20038;-80
2021/09/13 07:59:48;;;;;;;15.55;3.83;;;23.70;55.20;;;;;;6231141;28;20047;-79
2021/09/13 08:02:49;;;;;;;7.03;2.78;;;23.80;54.90;;;;;;6252204;28;20045;-80
2021/09/13 08:05:50;;;;;;;4.55;2.38;;;24.00;54.60;;;;;;6231425;28;20383;-78
2021/09/13 08:08:51;;;;;;;9.27;2.80;;;24.10;54.90;;;;;;6247447;28;20037;-78
2021/09/13 08:11:52;;;;;;;3.83;2.85;;;24.20;53.80;;;;;;6230327;28;20042;-78
2021/09/13 08:14:53;;;;;;;5.80;2.65;;;24.40;53.60;;;;;;6230728;28;20356;-78
2021/09/13 08:17:54;;;;;;;12.15;2.65;;;24.50;53.20;;;;;;6248571;28;20034;-77
2021/09/13 08:20:56;;;;;;;17.17;3.20;;;24.50;52.70;;;;;;6245597;28;20022;-78
2021/09/13 08:23:58;;;;;;;5.10;2.67;;;24.70;52.60;;;;;;6246205;28;20112;-78
2021/09/13 08:27:00;;;;;;;5.20;2.80;;;24.70;52.30;;;;;;6246200;28;20445;-78
2021/09/13 08:30:01;;;;;;;9.38;2.70;;;24.90;52.30;;;;;;6246987;28;20030;-78
2021/09/13 08:33:03;;;;;;;4.57;2.80;;;25.00;51.80;;;;;;6245975;28;20037;-78
2021/09/13 08:36:05;;;;;;;6.28;2.75;;;25.20;51.40;;;;;;6245436;28;20029;-78
2021/09/13 08:39:06;;;;;;;5.00;2.45;;;25.30;51.10;;;;;;6229896;28;20047;-78
2021/09/13 08:42:07;;;;;;;5.82;3.22;;;25.40;50.60;;;;;;6245261;28;20450;-76
2021/09/13 08:45:09;;;;;;;5.28;2.78;;;25.50;50.30;;;;;;6224018;28;20073;-77
2021/09/13 08:48:17;;;;;;;8.45;4.20;;;25.60;50.10;;;;;;6238555;28;20044;-77
2021/09/13 08:54:20;;;;;;;7.80;2.65;;;25.80;49.80;;;;;;6245889;28;19940;-75
2021/09/13 08:57:22;;;;;;;8.02;2.55;;;26.00;49.60;;;;;;6227077;28;20041;-77
2021/09/13 09:00:24;;;;;;;12.18;2.47;;;26.10;49.40;;;;;;6246921;28;20033;-77
2021/09/13 09:03:26;;;;;;;6.88;2.90;;;26.10;49.00;;;;;;6244472;28;20033;-76
2021/09/13 09:06:32;;;;;;;14.02;6.38;;;26.20;48.80;;;;;;6250122;28;20073;-77
2021/09/13 09:09:33;;;;;;;11.27;5.85;;;26.40;48.80;;;;;;6249163;28;20049;-76
2021/09/13 09:12:54;;;;;;;9.02;4.00;;;26.50;48.60;;;;;;6251511;28;20370;-78
2021/09/13 09:15:58;;;;;;;7.30;3.80;;;26.60;48.30;;;;;;6248799;28;20041;-77
2021/09/13 09:19:00;;;;;;;6.05;3.22;;;26.80;48.10;;;;;;6238146;28;20045;-78
2021/09/13 09:22:22;;;;;;;9.65;3.05;;;26.90;47.90;;;;;;6237560;28;20041;-77
2021/09/13 09:25:28;;;;;;;13.35;6.40;;;26.90;47.60;;;;;;6239538;28;20133;-76
2021/09/13 09:28:34;;;;;;;13.30;6.10;;;27.00;47.40;;;;;;6242297;28;20117;-79
2021/09/13 09:31:36;;;;;;;10.82;5.30;;;27.10;47.30;;;;;;6242258;28;20375;-78
2021/09/13 09:34:38;;;;;;;9.25;4.90;;;27.10;47.10;;;;;;6242581;28;20044;-78
2021/09/13 09:37:42;;;;;;;32.40;17.65;;;27.10;47.00;;;;;;6243456;28;20033;-78
2021/09/13 09:40:44;;;;;;;12.68;5.82;;;27.20;46.90;;;;;;6245633;28;20025;-79
2021/09/13 09:43:51;;;;;;;8.15;4.05;;;27.20;46.50;;;;;;6240210;28;20038;-77
2021/09/13 09:46:53;;;;;;;8.50;4.55;;;27.20;46.50;;;;;;6236426;28;20060;-77
2021/09/13 09:49:56;;;;;;;5.18;3.22;;;27.30;46.50;;;;;;6241541;28;20109;-76
2021/09/13 09:53:16;;;;;;;5.85;4.05;;;27.30;46.50;;;;;;6241679;28;20091;-78
2021/09/13 09:56:17;;;;;;;9.10;3.53;;;27.30;46.50;;;;;;6240853;28;20095;-77
2021/09/13 09:59:18;;;;;;;4.07;2.50;;;27.30;46.50;;;;;;6242182;28;20038;-78
2021/09/13 10:02:21;;;;;;;7.00;3.65;;;27.30;46.40;;;;;;6224660;28;20034;-78
2021/09/13 10:05:27;;;;;;;13.15;4.32;;;27.40;46.50;;;;;;6242361;28;20045;-78
2021/09/13 10:08:28;;;;;;;8.40;3.90;;;27.40;47.00;;;;;;6241324;28;20101;-78
2021/09/13 10:11:30;;;;;;;8.68;3.67;;;27.50;46.20;;;;;;6243415;28;20076;-77
2021/09/13 10:14:33;;;;;;;3.58;2.40;;;27.50;46.20;;;;;;6248036;28;20057;-80
2021/09/13 10:17:34;;;;;;;7.50;3.22;;;27.60;46.30;;;;;;6224226;28;20111;-80
2021/09/13 10:20:36;;;;;;;14.27;4.43;;;27.80;46.20;;;;;;6226264;28;20041;-78
2021/09/13 10:23:37;;;;;;;13.45;3.88;;;27.90;45.70;;;;;;6248043;28;20048;-80
2021/09/13 10:26:41;;;;;;;7.68;3.22;;;28.00;45.50;;;;;;6247709;28;20087;-78
2021/09/13 10:29:42;;;;;;;13.70;3.53;;;28.10;45.40;;;;;;6247421;28;20044;-78
2021/09/13 10:32:48;;;;;;;5.18;3.05;;;28.20;45.20;;;;;;6243878;28;20421;-79
2021/09/13 10:36:02;;;;;;;17.50;9.48;;;28.50;44.60;;;;;;6231081;28;20045;-79
2021/09/13 10:39:03;;;;;;;5.55;3.40;;;29.00;43.70;;;;;;6247237;28;20037;-79
2021/09/13 10:42:04;;;;;;;12.85;4.65;;;29.40;42.70;;;;;;6245821;28;20470;-79
2021/09/13 10:45:23;;;;;;;10.48;4.70;;;29.70;42.50;;;;;;6248274;28;20418;-80
2021/09/13 10:48:25;;;;;;;7.35;3.35;;;30.00;40.70;;;;;;6243070;28;20026;-80
2021/09/13 10:51:25;;;;;;;14.48;4.72;;;30.30;39.80;;;;;;6246920;28;20029;-78
2021/09/13 10:54:26;;;;;;;10.93;2.90;;;30.50;39.30;;;;;;6223890;28;20104;-79
2021/09/13 10:58:00;;;;;;;5.40;2.80;;;30.80;38.60;;;;;;6246847;28;20045;-78
2021/09/13 11:01:04;;;;;;;14.50;7.22;;;31.10;37.60;;;;;;6248101;28;20040;-81
2021/09/13 11:04:07;;;;;;;18.63;6.03;;;31.50;36.90;;;;;;6244416;28;20409;-81
2021/09/13 11:07:07;;;;;;;3.60;2.60;;;31.80;35.80;;;;;;6229778;28;20037;-80
2021/09/13 11:10:08;;;;;;;4.20;2.55;;;32.20;35.10;;;;;;6248683;28;20043;-81
2021/09/13 11:13:09;;;;;;;11.27;5.68;;;32.50;34.20;;;;;;6243873;28;20072;-79
2021/09/13 11:16:14;;;;;;;18.17;9.00;;;32.60;33.60;;;;;;6227613;28;20335;-80
2021/09/13 11:19:17;;;;;;;12.35;6.55;;;32.80;33.30;;;;;;6227315;28;20099;-79
2021/09/13 11:22:19;;;;;;;6.20;3.30;;;33.00;32.90;;;;;;6244839;28;20037;-79
2021/09/13 11:25:21;;;;;;;3.10;2.33;;;33.10;32.40;;;;;;6236723;28;20037;-80
2021/09/13 11:28:23;;;;;;;7.38;2.50;;;33.30;32.40;;;;;;6244701;28;20466;-80
2021/09/13 11:31:42;;;;;;;5.13;2.38;;;33.60;32.00;;;;;;6239786;28;20037;-80
2021/09/13 11:34:47;;;;;;;2.63;2.20;;;33.80;31.60;;;;;;6235411;28;20029;-79
2021/09/13 11:37:59;;;;;;;3.20;2.25;;;34.00;30.70;;;;;;6246688;28;20041;-80
2021/09/13 11:41:12;;;;;;;3.72;2.30;;;34.10;30.60;;;;;;6245566;28;20347;-78
2021/09/13 11:44:13;;;;;;;4.35;2.38;;;34.40;30.50;;;;;;6242523;28;20415;-79
2021/09/13 11:47:19;;;;;;;3.28;2.50;;;34.70;30.00;;;;;;6245649;28;20108;-79
2021/09/13 11:50:21;;;;;;;6.32;2.80;;;34.90;29.70;;;;;;6241646;28;20056;-78
2021/09/13 11:53:23;;;;;;;2.78;2.00;;;35.20;29.40;;;;;;6216244;28;20068;-78
2021/09/13 11:56:25;;;;;;;3.08;2.00;;;35.50;28.90;;;;;;6220953;28;20033;-79
2021/09/13 11:59:26;;;;;;;5.30;1.90;;;35.80;28.40;;;;;;6253890;28;20044;-79
2021/09/13 12:02:29;;;;;;;4.00;2.75;;;36.10;28.10;;;;;;6260488;28;20033;-79
2021/09/13 12:05:31;;;;;;;5.55;2.30;;;36.40;27.70;;;;;;6247599;28;20455;-78
2021/09/13 12:08:32;;;;;;;2.33;1.88;;;36.80;27.40;;;;;;6249733;28;20029;-78
2021/09/13 12:11:36;;;;;;;4.60;2.50;;;37.10;27.30;;;;;;6229203;28;20195;-79
2021/09/13 12:14:40;;;;;;;2.50;2.05;;;37.50;27.10;;;;;;6248492;28;20052;-79
2021/09/13 12:17:45;;;;;;;4.85;2.30;;;37.90;26.60;;;;;;6244406;28;20092;-79
2021/09/13 12:20:48;;;;;;;3.05;2.30;;;38.50;26.10;;;;;;6217046;28;20042;-79
2021/09/13 12:23:56;;;;;;;3.72;1.98;;;39.00;25.70;;;;;;6241733;28;20049;-79
2021/09/13 12:26:57;;;;;;;3.08;2.13;;;39.40;25.10;;;;;;6243591;28;20469;-80
2021/09/13 12:30:02;;;;;;;2.92;1.90;;;39.90;24.70;;;;;;6244160;28;20037;-79
2021/09/13 12:33:04;;;;;;;2.63;2.10;;;40.30;24.00;;;;;;6226318;28;20061;-79
2021/09/13 12:36:23;;;;;;;4.43;1.80;;;40.80;23.60;;;;;;6245644;28;20029;-81
2021/09/13 12:39:24;;;;;;;5.93;2.22;;;41.00;22.80;;;;;;6241712;28;20163;-79
2021/09/13 12:42:25;;;;;;;7.75;2.05;;;41.20;22.60;;;;;;6243552;28;20045;-80
2021/09/13 12:45:34;;;;;;;6.70;1.77;;;41.60;22.30;;;;;;6228727;28;20336;-79
2021/09/13 12:48:40;;;;;;;6.03;1.80;;;41.70;22.10;;;;;;6238288;28;20099;-79
2021/09/13 12:51:52;;;;;;;5.57;1.95;;;42.00;21.90;;;;;;6218897;28;20034;-79
2021/09/13 12:54:53;;;;;;;4.03;1.95;;;42.40;21.60;;;;;;6243828;28;20071;-79
2021/09/13 12:57:54;;;;;;;3.90;2.20;;;42.60;21.20;;;;;;6225948;28;20038;-78
2021/09/13 13:00:57;;;;;;;15.60;1.88;;;42.40;21.30;;;;;;6243996;28;20037;-81
2021/09/13 13:04:04;;;;;;;3.08;1.90;;;42.20;21.10;;;;;;6246095;28;20034;-80
2021/09/13 13:07:10;;;;;;;3.80;2.35;;;42.00;21.40;;;;;;6246272;28;20114;-80
2021/09/13 13:10:11;;;;;;;3.70;1.90;;;41.60;21.80;;;;;;6244430;28;20125;-81
2021/09/13 13:13:13;;;;;;;5.00;1.90;;;41.60;21.80;;;;;;6229387;28;20339;-79
2021/09/13 13:16:14;;;;;;;3.63;1.80;;;41.70;21.80;;;;;;6245114;28;20049;-79
2021/09/13 13:19:16;;;;;;;2.28;1.60;;;41.80;21.70;;;;;;6230823;28;20151;-79
2021/09/13 13:22:17;;;;;;;2.45;1.60;;;42.00;21.50;;;;;;6234913;28;20042;-79
2021/09/13 13:25:18;;;;;;;2.50;1.83;;;42.00;21.20;;;;;;6244525;28;20418;-80
2021/09/13 13:28:20;;;;;;;1.83;1.58;;;42.00;21.00;;;;;;6243455;28;20057;-80
2021/09/13 13:31:21;;;;;;;4.10;1.95;;;42.00;20.90;;;;;;6244477;28;20038;-80
2021/09/13 13:34:23;;;;;;;1.85;1.60;;;41.80;21.10;;;;;;6230898;28;20046;-80
2021/09/13 13:37:25;;;;;;;2.67;1.60;;;41.80;21.10;;;;;;6244455;28;20232;-80
2021/09/13 13:40:27;;;;;;;4.10;1.75;;;41.80;21.20;;;;;;6226080;28;20120;-80
2021/09/13 13:43:28;;;;;;;2.60;1.90;;;41.20;21.10;;;;;;6244113;28;20043;-79
2021/09/13 13:46:30;;;;;;;4.93;1.80;;;40.40;21.60;;;;;;6232085;28;20033;-81
2021/09/13 13:49:30;;;;;;;7.25;1.73;;;39.50;22.20;;;;;;6247430;28;20052;-79
2021/09/13 13:52:32;;;;;;;10.63;2.10;;;38.80;22.70;;;;;;6248519;28;20045;-79
2021/09/13 13:55:33;;;;;;;3.80;1.73;;;38.20;23.20;;;;;;6250248;28;20091;-79
2021/09/13 13:58:33;;;;;;;3.13;1.58;;;37.70;23.60;;;;;;6247814;28;20053;-80
2021/09/13 14:01:34;;;;;;;5.10;1.85;;;37.20;23.80;;;;;;6249013;28;20056;-79
2021/09/13 14:04:36;;;;;;;2.10;1.55;;;36.70;24.10;;;;;;6247521;28;20462;-80
2021/09/13 14:07:37;;;;;;;3.42;1.70;;;36.20;24.40;;;;;;6232564;28;20041;-82
2021/09/13 14:10:38;;;;;;;3.08;1.67;;;35.80;24.90;;;;;;6231800;28;20060;-80
2021/09/13 14:13:39;;;;;;;2.42;1.50;;;35.50;25.30;;;;;;6247936;28;20088;-80
2021/09/13 14:16:41;;;;;;;1.88;1.42;;;35.20;25.60;;;;;;6249761;28;20029;-80
2021/09/13 14:19:43;;;;;;;7.22;1.80;;;35.00;26.10;;;;;;6249091;28;20045;-78
2021/09/13 14:22:45;;;;;;;3.58;1.60;;;34.70;26.50;;;;;;6249003;28;20029;-80
2021/09/13 14:25:46;;;;;;;2.70;1.48;;;34.60;27.00;;;;;;6232344;28;20053;-80
2021/09/13 14:28:47;;;;;;;5.95;1.60;;;34.30;27.60;;;;;;6231948;28;20352;-80
2021/09/13 14:31:49;;;;;;;5.40;1.77;;;34.20;28.00;;;;;;6229438;28;20071;-80
2021/09/13 14:34:50;;;;;;;5.97;1.60;;;34.00;28.40;;;;;;6247693;28;20419;-80
2021/09/13 14:37:51;;;;;;;3.28;1.60;;;33.80;28.70;;;;;;6250470;28;20462;-80
2021/09/13 14:40:52;;;;;;;2.92;1.63;;;33.70;29.00;;;;;;6247774;28;20064;-79
2021/09/13 14:43:53;;;;;;;4.55;1.90;;;33.60;29.30;;;;;;6247309;28;20045;-79
2021/09/13 14:46:54;;;;;;;3.83;1.92;;;33.50;29.40;;;;;;6231893;28;20052;-79
2021/09/13 14:49:55;;;;;;;5.13;1.88;;;33.50;29.60;;;;;;6231582;28;20030;-79
2021/09/13 14:52:56;;;;;;;12.95;1.83;;;33.40;29.60;;;;;;6247014;28;20041;-79
2021/09/13 14:55:57;;;;;;;5.82;1.90;;;33.40;30.10;;;;;;6244956;28;20034;-79
2021/09/13 14:58:59;;;;;;;6.07;2.00;;;33.40;29.90;;;;;;6248458;28;20041;-80
2021/09/13 15:02:00;;;;;;;3.92;1.92;;;33.30;30.00;;;;;;6247380;28;20044;-79
2021/09/13 15:05:01;;;;;;;9.43;2.15;;;33.20;30.30;;;;;;6231049;28;20037;-80
2021/09/13 15:08:02;;;;;;;3.15;1.63;;;33.00;30.50;;;;;;6249030;28;20040;-79
2021/09/13 15:11:04;;;;;;;8.82;1.70;;;33.00;30.90;;;;;;6247415;28;20366;-79
2021/09/13 15:14:06;;;;;;;6.05;2.05;;;32.90;31.30;;;;;;6246765;28;20462;-80
2021/09/13 15:17:06;;;;;;;3.08;1.85;;;32.90;31.50;;;;;;6248676;28;20475;-79
2021/09/13 15:20:09;;;;;;;6.80;1.85;;;32.90;31.60;;;;;;6247542;28;20033;-81
2021/09/13 15:23:10;;;;;;;2.53;1.73;;;32.80;31.70;;;;;;6238114;28;20041;-81
2021/09/13 15:26:11;;;;;;;2.50;1.60;;;32.70;32.10;;;;;;6243470;28;20040;-80
2021/09/13 15:29:12;;;;;;;4.60;1.83;;;32.60;32.50;;;;;;6247808;28;20068;-85
2021/09/13 15:32:13;;;;;;;4.60;2.17;;;32.50;32.80;;;;;;6239167;28;20046;-81
2021/09/13 15:35:14;;;;;;;3.90;1.90;;;32.30;33.10;;;;;;6228619;28;20143;-81
2021/09/13 15:38:15;;;;;;;2.25;1.60;;;32.30;33.20;;;;;;6247346;28;20037;-80
2021/09/13 15:41:16;;;;;;;4.03;1.90;;;32.30;33.40;;;;;;6228482;28;20099;-80
2021/09/13 15:44:18;;;;;;;2.22;1.90;;;32.20;33.50;;;;;;6223314;28;20458;-81
2021/09/13 15:47:19;;;;;;;2.25;1.90;;;32.20;33.60;;;;;;6229609;28;20097;-79
2021/09/13 15:50:20;;;;;;;2.53;2.05;;;32.10;33.70;;;;;;6242986;28;20132;-82
2021/09/13 15:53:22;;;;;;;1.77;1.60;;;32.00;33.90;;;;;;6229983;28;20041;-82
2021/09/13 15:56:23;;;;;;;3.20;1.92;;;32.00;34.10;;;;;;6245203;28;20037;-81
2021/09/13 15:59:25;;;;;;;7.18;2.00;;;31.90;34.30;;;;;;6245761;28;20463;-81
2021/09/13 16:02:26;;;;;;;4.32;1.80;;;31.80;34.40;;;;;;6246228;28;20462;-81
2021/09/13 16:05:27;;;;;;;3.10;1.70;;;31.70;34.50;;;;;;6248425;28;20029;-82